Time;durP1;ratioP1;P1;durP2;ratioP2;P2;SDS_P1;SDS_P2;PMS_P1;PMS_P2;Temp;Humidity;BMP_temperature;BMP_pressure;BME280_temperature;BME280_humidity;BME280_pressure;Samples;Min_cycle;Max_cycle;Signal;HPM_P1;HPM_P2
2022/04/24 00:02:13;;;;;;;13.23;11.80;;;9.10;99.90;;;;;;4899942;28;88700;-34
2022/04/24 00:04:40;;;;;;;13.95;11.70;;;9.20;99.90;;;;;;4900790;28;89620;-35
2022/04/24 00:07:08;;;;;;;14.52;12.07;;;9.30;99.90;;;;;;4900222;28;89476;-35
2022/04/24 00:09:34;;;;;;;13.38;12.00;;;9.20;99.90;;;;;;4900709;28;90207;-33
2022/04/24 00:12:00;;;;;;;16.00;12.38;;;9.10;99.90;;;;;;4899282;28;90577;-38
2022/04/24 00:14:26;;;;;;;13.18;11.82;;;9.10;99.90;;;;;;4900239;28;90074;-38
2022/04/24 00:16:52;;;;;;;15.77;11.55;;;9.00;99.90;;;;;;4902365;28;89358;-36
2022/04/24 00:19:19;;;;;;;13.98;12.48;;;9.10;99.90;;;;;;4904267;28;90141;-36
2022/04/24 00:21:45;;;;;;;13.18;11.73;;;9.00;99.90;;;;;;4903414;28;89757;-35
2022/04/24 00:24:11;;;;;;;12.95;11.65;;;9.10;99.90;;;;;;4920753;28;89294;-37
2022/04/24 00:26:37;;;;;;;11.98;10.88;;;9.00;99.90;;;;;;4923192;28;88240;-32
2022/04/24 00:29:03;;;;;;;13.93;11.45;;;8.90;99.90;;;;;;4923127;28;90457;-37
2022/04/24 00:31:29;;;;;;;13.27;11.73;;;9.00;99.90;;;;;;4923243;28;89496;-34
2022/04/24 00:33:54;;;;;;;12.38;9.98;;;8.90;99.90;;;;;;4956225;22;89468;-35
2022/04/24 00:36:20;;;;;;;13.10;11.90;;;8.90;99.90;;;;;;4921685;28;89818;-36
2022/04/24 00:38:46;;;;;;;11.77;10.57;;;8.80;99.90;;;;;;4922590;28;90077;-35
2022/04/24 00:41:11;;;;;;;15.73;11.57;;;8.80;99.90;;;;;;4922761;28;89492;-34
2022/04/24 00:43:37;;;;;;;13.27;11.90;;;8.70;99.90;;;;;;4922568;28;89549;-32
2022/04/24 00:46:18;;;;;;;14.77;11.60;;;8.80;99.90;;;;;;4922732;28;90365;-36
2022/04/24 00:48:44;;;;;;;13.07;11.70;;;8.80;99.90;;;;;;4922673;28;90581;-35
2022/04/24 00:51:10;;;;;;;15.27;10.57;;;8.70;99.90;;;;;;4921920;28;89826;-35
2022/04/24 00:53:36;;;;;;;11.70;10.55;;;8.70;99.90;;;;;;4922343;28;89349;-37
2022/04/24 00:56:02;;;;;;;14.18;11.43;;;8.60;99.90;;;;;;4922652;28;89097;-37
2022/04/24 00:58:29;;;;;;;13.07;11.88;;;8.70;99.90;;;;;;4922350;28;89388;-40
2022/04/24 01:00:56;;;;;;;14.85;11.48;;;8.80;99.90;;;;;;4921795;28;90668;-37
2022/04/24 01:03:22;;;;;;;14.18;10.43;;;8.70;99.90;;;;;;4922402;28;91519;-35
2022/04/24 01:05:48;;;;;;;10.77;9.43;;;8.70;99.90;;;;;;4921991;28;89975;-38
2022/04/24 01:08:13;;;;;;;12.05;10.82;;;8.70;99.90;;;;;;4923628;28;89297;-35
2022/04/24 01:10:40;;;;;;;13.77;10.55;;;8.60;99.90;;;;;;4921782;28;89546;-35
2022/04/24 01:13:06;;;;;;;14.02;11.25;;;8.60;99.90;;;;;;4922383;28;90115;-34
2022/04/24 01:15:32;;;;;;;13.65;11.93;;;8.50;99.90;;;;;;4922550;28;89624;-36
2022/04/24 01:17:58;;;;;;;13.82;11.90;;;8.50;99.90;;;;;;4921629;28;90965;-34
2022/04/24 01:20:24;;;;;;;14.50;13.02;;;8.50;99.90;;;;;;4922789;28;90233;-37
2022/04/24 01:22:50;;;;;;;15.30;12.30;;;8.50;99.90;;;;;;4921666;28;90769;-35
2022/04/24 01:25:16;;;;;;;16.27;11.98;;;8.40;99.90;;;;;;4921672;28;89099;-34
2022/04/24 01:27:41;;;;;;;14.50;11.80;;;8.40;99.90;;;;;;4921459;28;90569;-34
2022/04/24 01:30:08;;;;;;;16.85;11.07;;;8.30;99.90;;;;;;4921901;28;89752;-35
2022/04/24 01:32:38;;;;;;;14.07;12.45;;;8.40;99.90;;;;;;4922239;28;88994;-35
2022/04/24 01:35:05;;;;;;;17.45;11.43;;;8.40;99.90;;;;;;4904787;28;89734;-34
2022/04/24 01:37:31;;;;;;;14.95;13.20;;;8.30;99.90;;;;;;4921936;28;91169;-35
2022/04/24 01:39:57;;;;;;;15.30;10.90;;;8.30;99.90;;;;;;4921731;28;90347;-34
2022/04/24 01:42:23;;;;;;;15.00;12.55;;;8.20;99.90;;;;;;4922676;28;90007;-35
2022/04/24 01:44:49;;;;;;;13.50;12.07;;;8.20;99.90;;;;;;4922241;28;89134;-35
2022/04/24 01:47:14;;;;;;;13.85;12.50;;;8.20;99.90;;;;;;4921762;28;90306;-34
2022/04/24 01:49:40;;;;;;;14.55;12.15;;;8.30;99.90;;;;;;4921415;28;90351;-32
2022/04/24 01:52:06;;;;;;;12.98;11.63;;;8.20;99.90;;;;;;4921374;28;91912;-33
2022/04/24 01:54:32;;;;;;;13.77;10.85;;;8.20;99.90;;;;;;4921907;28;87761;-37
2022/04/24 01:56:58;;;;;;;14.93;10.68;;;8.20;99.90;;;;;;4921406;28;92005;-34
2022/04/24 01:59:23;;;;;;;12.27;11.05;;;8.10;99.90;;;;;;4921251;28;90060;-36
2022/04/24 02:01:49;;;;;;;15.68;12.00;;;8.00;99.90;;;;;;4921222;28;91425;-35
2022/04/24 02:04:16;;;;;;;13.45;12.15;;;8.10;99.90;;;;;;4921150;28;88346;-38
2022/04/24 02:06:42;;;;;;;16.13;11.52;;;8.00;99.90;;;;;;4921618;28;90054;-34
2022/04/24 02:09:07;;;;;;;14.73;13.23;;;8.00;99.90;;;;;;4921367;28;89881;-34
2022/04/24 02:11:33;;;;;;;11.98;10.70;;;7.90;99.90;;;;;;4921170;28;88355;-34
2022/04/24 02:13:59;;;;;;;12.93;10.75;;;7.90;99.90;;;;;;4921327;28;89502;-35
2022/04/24 02:16:24;;;;;;;13.07;11.57;;;8.00;99.90;;;;;;4921431;28;89036;-33
2022/04/24 02:18:50;;;;;;;11.35;10.25;;;8.00;99.90;;;;;;4920660;28;89466;-36
2022/04/24 02:21:15;;;;;;;12.30;11.00;;;7.90;99.90;;;;;;4920802;28;88427;-36
2022/04/24 02:23:41;;;;;;;12.57;11.38;;;7.80;99.90;;;;;;4921389;28;89970;-35
2022/04/24 02:26:07;;;;;;;13.52;11.10;;;7.80;99.90;;;;;;4921832;28;90274;-36
2022/04/24 02:28:32;;;;;;;11.55;10.55;;;7.80;99.90;;;;;;4920764;28;89936;-33
2022/04/24 02:30:58;;;;;;;11.98;10.73;;;7.80;99.90;;;;;;4921480;28;89871;-33
2022/04/24 02:33:23;;;;;;;12.95;11.65;;;7.70;99.90;;;;;;4920441;28;88144;-34
2022/04/24 02:35:49;;;;;;;13.52;12.13;;;7.60;99.90;;;;;;4921208;28;90347;-34
2022/04/24 02:38:15;;;;;;;16.33;11.48;;;7.60;99.90;;;;;;4920133;28;90541;-38
2022/04/24 02:40:40;;;;;;;15.65;11.73;;;7.50;99.90;;;;;;4920770;28;90458;-32
2022/04/24 02:43:06;;;;;;;12.68;11.38;;;7.50;99.90;;;;;;4921233;28;90042;-34
2022/04/24 02:45:32;;;;;;;12.88;11.60;;;7.50;99.90;;;;;;4920907;28;90226;-33
2022/04/24 02:47:57;;;;;;;13.57;11.65;;;7.50;99.90;;;;;;4921085;28;89296;-33
2022/04/24 02:50:23;;;;;;;12.85;11.48;;;7.50;99.90;;;;;;4920612;28;90727;-37
2022/04/24 02:52:54;;;;;;;13.70;12.43;;;7.30;99.90;;;;;;4920769;28;89447;-38
2022/04/24 02:55:20;;;;;;;17.67;13.23;;;7.20;99.90;;;;;;4921596;28;91547;-40
2022/04/24 02:57:47;;;;;;;13.32;12.00;;;7.20;99.90;;;;;;4921419;28;89936;-33
2022/04/24 03:00:14;;;;;;;14.00;12.50;;;7.10;99.90;;;;;;4920548;28;90091;-36
2022/04/24 03:02:43;;;;;;;13.45;12.15;;;7.10;99.90;;;;;;4919890;28;89900;-34
2022/04/24 03:05:17;;;;;;;13.35;12.10;;;7.10;99.90;;;;;;4920663;28;89098;-37
2022/04/24 03:07:43;;;;;;;14.00;12.30;;;7.00;99.90;;;;;;4920196;28;90311;-37
2022/04/24 03:10:10;;;;;;;14.27;12.70;;;7.00;99.90;;;;;;4921088;28;90049;-34
2022/04/24 03:12:40;;;;;;;15.43;11.32;;;6.90;99.90;;;;;;4920421;28;88568;-37
2022/04/24 03:15:08;;;;;;;14.75;13.15;;;6.90;99.90;;;;;;4921263;28;90061;-35
2022/04/24 03:17:34;;;;;;;17.00;13.55;;;6.80;99.90;;;;;;4920451;28;91236;-35
2022/04/24 03:20:01;;;;;;;14.13;12.45;;;6.70;99.90;;;;;;4920401;28;89751;-36
2022/04/24 03:22:27;;;;;;;15.93;12.63;;;6.70;99.90;;;;;;4921108;28;90159;-35
2022/04/24 03:24:53;;;;;;;14.48;12.48;;;6.70;99.90;;;;;;4921157;28;89759;-33
2022/04/24 03:27:19;;;;;;;12.95;11.65;;;6.70;99.90;;;;;;4919812;28;90688;-36
2022/04/24 03:29:44;;;;;;;14.38;12.90;;;6.60;99.90;;;;;;4920546;28;90597;-34
2022/04/24 03:32:10;;;;;;;15.38;12.40;;;6.60;99.90;;;;;;4919909;28;88400;-36
2022/04/24 03:34:37;;;;;;;17.75;13.82;;;6.60;99.90;;;;;;4920079;28;91132;-33
2022/04/24 03:37:03;;;;;;;18.67;13.57;;;6.60;99.90;;;;;;4920807;28;89677;-34
2022/04/24 03:39:29;;;;;;;16.27;14.68;;;6.60;99.90;;;;;;4919967;28;90123;-37
2022/04/24 03:41:55;;;;;;;14.27;12.77;;;6.50;99.90;;;;;;4920102;28;88656;-38
2022/04/24 03:44:20;;;;;;;15.07;13.48;;;6.50;99.90;;;;;;4920484;28;92000;-35
2022/04/24 03:46:46;;;;;;;16.88;14.38;;;6.50;99.90;;;;;;4919569;28;89807;-33
2022/04/24 03:49:12;;;;;;;18.05;13.65;;;6.40;99.90;;;;;;4920396;28;89979;-33
2022/04/24 03:51:37;;;;;;;18.48;13.05;;;6.50;99.90;;;;;;4918892;28;89209;-34
2022/04/24 03:54:03;;;;;;;14.68;13.25;;;6.40;99.90;;;;;;4920016;28;91048;-37
2022/04/24 03:56:31;;;;;;;15.68;13.70;;;6.30;99.90;;;;;;4919860;28;90445;-35
2022/04/24 03:59:00;;;;;;;14.23;12.60;;;6.40;99.90;;;;;;4919187;28;89207;-35
2022/04/24 04:01:26;;;;;;;17.13;13.32;;;6.40;99.90;;;;;;4919721;28;89143;-34
2022/04/24 04:03:52;;;;;;;19.58;14.23;;;6.30;99.90;;;;;;4919574;28;89790;-38
2022/04/24 04:06:19;;;;;;;14.27;12.77;;;6.30;99.90;;;;;;4920137;28;89566;-33
2022/04/24 04:08:45;;;;;;;14.32;12.82;;;6.30;99.90;;;;;;4919390;28;89880;-33
2022/04/24 04:11:12;;;;;;;15.13;13.13;;;6.30;99.90;;;;;;4920162;28;87986;-33
2022/04/24 04:13:38;;;;;;;14.65;13.25;;;6.30;99.90;;;;;;4919093;28;88987;-33
2022/04/24 04:16:03;;;;;;;15.50;13.85;;;6.30;99.90;;;;;;4919190;28;90836;-38
2022/04/24 04:18:29;;;;;;;14.00;12.57;;;6.20;99.90;;;;;;4920239;28;91592;-34
2022/04/24 04:20:55;;;;;;;15.80;14.10;;;6.20;99.90;;;;;;4919188;28;88842;-34
2022/04/24 04:23:20;;;;;;;14.77;13.32;;;6.20;99.90;;;;;;4919589;28;90288;-38
2022/04/24 04:25:46;;;;;;;15.35;13.70;;;6.30;99.90;;;;;;4918736;28;90490;-33
2022/04/24 04:28:11;;;;;;;15.65;13.48;;;6.30;99.90;;;;;;4919481;28;89612;-36
2022/04/24 04:30:37;;;;;;;16.83;14.25;;;6.30;99.90;;;;;;4919255;28;88860;-37
2022/04/24 04:33:02;;;;;;;15.93;13.27;;;6.40;99.90;;;;;;4919295;28;89886;-36
2022/04/24 04:35:28;;;;;;;15.63;13.95;;;6.50;99.90;;;;;;4919284;28;88968;-35
2022/04/24 04:37:54;;;;;;;14.32;12.80;;;6.50;99.90;;;;;;4918677;28;89466;-36
2022/04/24 04:40:20;;;;;;;18.88;13.68;;;6.50;99.90;;;;;;4919542;28;90655;-35
2022/04/24 04:42:48;;;;;;;14.05;12.50;;;6.50;99.90;;;;;;4919183;28;90285;-35
2022/04/24 04:45:14;;;;;;;14.25;12.90;;;6.40;99.90;;;;;;4919006;28;89862;-36
2022/04/24 04:47:40;;;;;;;18.88;13.00;;;6.50;99.90;;;;;;4901375;28;90641;-35
2022/04/24 04:50:07;;;;;;;14.57;12.75;;;6.50;99.90;;;;;;4919102;28;89094;-33
2022/04/24 04:52:33;;;;;;;17.45;13.20;;;6.50;99.90;;;;;;4918987;28;90703;-37
2022/04/24 04:54:59;;;;;;;14.50;12.30;;;6.50;99.90;;;;;;4901922;28;89919;-39
2022/04/24 04:57:25;;;;;;;12.77;11.32;;;6.50;99.90;;;;;;4919025;28;90479;-36
2022/04/24 04:59:51;;;;;;;15.57;13.07;;;6.60;99.90;;;;;;4918863;28;88993;-38
2022/04/24 05:02:16;;;;;;;15.50;13.23;;;6.70;99.90;;;;;;4920399;28;89331;-36
2022/04/24 05:04:45;;;;;;;14.02;12.63;;;6.70;99.90;;;;;;4921739;28;90451;-38
2022/04/24 05:07:11;;;;;;;;;;;6.70;99.90;;;;;;4923310;28;90564;-36
2022/04/24 05:09:37;;;;;;;15.73;14.13;;;6.80;99.90;;;;;;4924426;28;89967;-34
2022/04/24 05:12:04;;;;;;;13.57;11.65;;;6.80;99.90;;;;;;4921779;28;90277;-33
2022/04/24 05:14:30;;;;;;;17.45;12.30;;;7.00;99.90;;;;;;4922112;28;89881;-34
2022/04/24 05:16:56;;;;;;;14.38;12.05;;;7.10;99.90;;;;;;4922418;28;89574;-35
2022/04/24 05:19:22;;;;;;;16.00;12.20;;;7.20;99.90;;;;;;4921858;28;88843;-34
2022/04/24 05:21:48;;;;;;;14.35;12.18;;;7.30;99.90;;;;;;4922375;28;91012;-36
2022/04/24 05:24:13;;;;;;;12.18;10.98;;;7.30;99.90;;;;;;4921705;28;95541;-37
2022/04/24 05:26:40;;;;;;;12.45;11.15;;;7.30;99.90;;;;;;4921827;28;89951;-39
2022/04/24 05:29:06;;;;;;;15.82;12.98;;;7.40;99.90;;;;;;4922802;28;88702;-33
2022/04/24 05:31:32;;;;;;;16.08;12.15;;;7.30;99.90;;;;;;4922125;28;91575;-35
2022/04/24 05:33:57;;;;;;;16.58;12.23;;;7.40;99.90;;;;;;4921625;28;91820;-34
2022/04/24 05:36:23;;;;;;;15.15;12.20;;;7.40;99.90;;;;;;4921692;28;90211;-36
2022/04/24 05:38:48;;;;;;;14.05;12.50;;;7.40;99.90;;;;;;4921988;28;89251;-38
2022/04/24 05:41:14;;;;;;;14.50;12.55;;;7.40;99.90;;;;;;4922426;28;90265;-34
2022/04/24 05:43:39;;;;;;;15.25;13.25;;;7.40;99.90;;;;;;4921249;28;89957;-37
2022/04/24 05:46:05;;;;;;;16.15;12.45;;;7.50;99.90;;;;;;4922848;28;90185;-34
2022/04/24 05:48:31;;;;;;;13.32;11.70;;;7.50;99.90;;;;;;4921558;28;89231;-34
2022/04/24 05:50:57;;;;;;;14.48;12.65;;;7.60;99.90;;;;;;4921859;28;89949;-34
2022/04/24 05:53:23;;;;;;;15.35;11.50;;;7.60;99.90;;;;;;4921030;28;90802;-37
2022/04/24 05:55:49;;;;;;;13.10;11.80;;;7.60;99.90;;;;;;4920794;28;90342;-36
2022/04/24 05:58:14;;;;;;;17.10;11.80;;;7.70;99.90;;;;;;4922201;28;89284;-33
2022/04/24 06:00:40;;;;;;;16.55;12.38;;;7.70;99.90;;;;;;4921380;28;90970;-34
2022/04/24 06:03:06;;;;;;;14.02;11.82;;;7.70;99.90;;;;;;4921872;28;89698;-34
2022/04/24 06:05:31;;;;;;;14.57;11.98;;;7.80;99.90;;;;;;4921543;28;89945;-38
2022/04/24 06:07:57;;;;;;;13.07;11.88;;;7.90;99.90;;;;;;4921689;28;90220;-39
2022/04/24 06:10:22;;;;;;;11.32;9.70;;;8.00;99.90;;;;;;4921115;28;90015;-34
2022/04/24 06:12:52;;;;;;;14.07;12.55;;;7.90;99.90;;;;;;4921120;28;89124;-38
2022/04/24 06:15:21;;;;;;;12.88;10.13;;;8.00;99.90;;;;;;4921358;28;90013;-35
2022/04/24 06:17:50;;;;;;;15.23;11.50;;;8.10;99.90;;;;;;4920996;28;89752;-38
2022/04/24 06:20:16;;;;;;;13.15;10.05;;;8.20;99.90;;;;;;4921425;28;90831;-40
2022/04/24 06:22:43;;;;;;;16.15;12.10;;;8.20;99.90;;;;;;4921490;28;89723;-34
2022/04/24 06:25:13;;;;;;;14.35;12.25;;;8.30;99.90;;;;;;4921356;28;89190;-34
2022/04/24 06:27:39;;;;;;;14.02;11.90;;;8.40;99.90;;;;;;4920916;28;88408;-38
2022/04/24 06:30:05;;;;;;;19.58;11.07;;;8.50;99.90;;;;;;4921512;28;90090;-39
2022/04/24 06:32:32;;;;;;;12.30;10.27;;;8.60;99.90;;;;;;4920661;28;91349;-34
2022/04/24 06:34:57;;;;;;;15.32;13.68;;;8.60;99.90;;;;;;4920283;28;89625;-34
2022/04/24 06:37:23;;;;;;;14.48;11.90;;;8.70;99.90;;;;;;4921519;28;89057;-37
2022/04/24 06:39:48;;;;;;;16.00;12.32;;;8.80;99.90;;;;;;4919625;28;89432;-36
2022/04/24 06:42:14;;;;;;;17.23;12.18;;;8.80;99.90;;;;;;4919202;28;94237;-38
2022/04/24 06:44:39;;;;;;;18.55;11.73;;;8.90;99.90;;;;;;4901908;28;90447;-36
2022/04/24 06:47:05;;;;;;;17.48;12.73;;;9.00;99.90;;;;;;4901753;28;89488;-37
2022/04/24 06:49:31;;;;;;;14.38;10.98;;;9.00;99.90;;;;;;4918965;28;90501;-35
2022/04/24 06:51:56;;;;;;;15.63;11.30;;;9.10;99.90;;;;;;4919049;28;88972;-35
2022/04/24 06:54:22;;;;;;;13.80;11.38;;;9.30;99.90;;;;;;4920419;28;90018;-36
2022/04/24 06:56:47;;;;;;;11.70;10.50;;;9.30;99.90;;;;;;4920793;28;88530;-35
2022/04/24 06:59:13;;;;;;;11.00;9.93;;;9.40;99.90;;;;;;4920504;28;94495;-38
2022/04/24 07:01:38;;;;;;;10.25;8.95;;;9.40;99.90;;;;;;4921204;28;89734;-36
2022/04/24 07:04:05;;;;;;;13.65;10.05;;;9.40;99.90;;;;;;4921301;28;89486;-35
2022/04/24 07:06:31;;;;;;;12.20;9.18;;;9.60;99.90;;;;;;4920614;28;89887;-35
2022/04/24 07:08:56;;;;;;;14.30;10.98;;;9.70;99.90;;;;;;4921171;28;90407;-35
2022/04/24 07:11:22;;;;;;;15.55;11.38;;;9.90;99.90;;;;;;4920966;28;89542;-35
2022/04/24 07:13:47;;;;;;;12.65;10.50;;;10.20;99.90;;;;;;4902540;28;90789;-35
2022/04/24 07:16:13;;;;;;;12.00;9.73;;;10.20;99.90;;;;;;4918988;28;89649;-33
2022/04/24 07:18:39;;;;;;;13.27;10.65;;;10.40;99.90;;;;;;4903627;28;90260;-34
2022/04/24 07:21:06;;;;;;;12.63;9.20;;;10.70;99.90;;;;;;4920030;28;89988;-35
2022/04/24 07:23:32;;;;;;;9.60;8.63;;;10.70;99.90;;;;;;4921357;28;89726;-38
2022/04/24 07:25:58;;;;;;;9.02;7.80;;;11.00;99.90;;;;;;4920569;28;88692;-37
2022/04/24 07:28:24;;;;;;;7.90;6.93;;;11.00;99.90;;;;;;4921336;28;90082;-34
2022/04/24 07:30:50;;;;;;;8.35;7.05;;;11.20;99.90;;;;;;4901692;28;90149;-38
2022/04/24 07:33:15;;;;;;;10.18;7.95;;;11.40;99.90;;;;;;4902421;28;90183;-37
2022/04/24 07:35:42;;;;;;;11.57;8.73;;;11.30;99.90;;;;;;4920558;28;89376;-39
2022/04/24 07:38:08;;;;;;;9.30;8.00;;;11.50;99.90;;;;;;4921003;28;90359;-33
2022/04/24 07:40:36;;;;;;;8.43;7.47;;;11.80;99.90;;;;;;4919435;28;88560;-32
2022/04/24 07:43:04;;;;;;;9.20;8.20;;;11.70;99.90;;;;;;4920426;28;89122;-34
2022/04/24 07:45:34;;;;;;;9.35;7.07;;;11.60;99.90;;;;;;4921148;28;88043;-35
2022/04/24 07:48:01;;;;;;;7.90;7.13;;;11.70;99.90;;;;;;4903599;28;90284;-39
2022/04/24 07:50:29;;;;;;;8.00;7.20;;;12.00;99.90;;;;;;4921372;28;88466;-34
2022/04/24 07:52:55;;;;;;;7.70;7.03;;;12.10;99.90;;;;;;4920728;28;89652;-38
2022/04/24 07:55:23;;;;;;;13.88;5.47;;;12.20;99.90;;;;;;4920542;28;88533;-33
2022/04/24 07:57:54;;;;;;;7.47;5.78;;;11.90;99.90;;;;;;4920454;28;89217;-38
2022/04/24 08:00:22;;;;;;;11.20;6.88;;;12.20;99.90;;;;;;4920361;28;88211;-39
2022/04/24 08:03:01;;;;;;;13.80;5.50;;;12.40;99.90;;;;;;4920809;28;89743;-37
2022/04/24 08:05:29;;;;;;;7.00;5.47;;;12.50;99.90;;;;;;4920930;28;89301;-38
2022/04/24 08:07:57;;;;;;;5.07;4.57;;;12.70;99.90;;;;;;4920595;28;89107;-36
2022/04/24 08:10:25;;;;;;;5.80;4.80;;;12.90;99.90;;;;;;4920707;28;91314;-35
2022/04/24 08:12:51;;;;;;;;;;;12.90;99.90;;;;;;4920564;28;90255;-34
2022/04/24 08:15:17;;;;;;;9.00;5.53;;;12.80;99.90;;;;;;4921563;28;89096;-35
2022/04/24 08:17:43;;;;;;;7.65;5.25;;;12.90;99.90;;;;;;4920522;28;90159;-34
2022/04/24 08:20:10;;;;;;;10.55;4.93;;;13.10;99.90;;;;;;4919585;28;90578;-36
2022/04/24 08:22:40;;;;;;;4.47;4.07;;;13.30;99.90;;;;;;4920381;28;89313;-37
2022/04/24 08:25:07;;;;;;;5.10;4.32;;;13.60;96.10;;;;;;4920639;28;90110;-36
2022/04/24 08:27:33;;;;;;;4.00;3.70;;;13.80;93.60;;;;;;4920119;28;90305;-37
2022/04/24 08:29:58;;;;;;;5.68;4.22;;;14.00;92.60;;;;;;4919727;28;89770;-34
2022/04/24 08:32:25;;;;;;;3.72;3.42;;;13.90;86.80;;;;;;4920946;28;89555;-37
2022/04/24 08:34:56;;;;;;;3.45;3.15;;;14.10;89.60;;;;;;4920312;28;89596;-35
2022/04/24 08:37:22;;;;;;;4.28;3.88;;;14.20;83.30;;;;;;4907983;28;90308;-37
2022/04/24 08:39:48;;;;;;;8.32;3.83;;;14.20;92.50;;;;;;4904633;28;89863;-34
2022/04/24 08:42:18;;;;;;;4.38;3.33;;;14.50;82.50;;;;;;4907812;28;89369;-38
2022/04/24 08:44:45;;;;;;;6.53;3.40;;;14.40;73.90;;;;;;4921731;28;89713;-35
2022/04/24 08:47:12;;;;;;;9.02;3.10;;;14.40;75.00;;;;;;4921737;28;90287;-35
2022/04/24 08:49:39;;;;;;;7.97;3.75;;;14.60;72.40;;;;;;4920592;28;90033;-36
2022/04/24 08:52:06;;;;;;;5.07;3.70;;;14.80;74.80;;;;;;4920004;28;89297;-34
2022/04/24 08:54:32;;;;;;;6.47;4.25;;;14.70;71.10;;;;;;4920830;28;88243;-37
2022/04/24 08:56:58;;;;;;;4.85;3.80;;;14.80;70.50;;;;;;4920387;28;91430;-36
2022/04/24 08:59:23;;;;;;;3.70;3.40;;;15.10;77.60;;;;;;4920899;28;89873;-38
2022/04/24 09:01:50;;;;;;;4.95;3.50;;;14.90;72.40;;;;;;4921198;28;89699;-34
2022/04/24 09:04:16;;;;;;;4.65;3.50;;;15.00;70.70;;;;;;4919142;28;87815;-37
2022/04/24 09:06:42;;;;;;;4.03;3.08;;;15.10;71.50;;;;;;4920374;28;90552;-38
2022/04/24 09:09:08;;;;;;;6.32;4.13;;;15.10;69.80;;;;;;4920679;28;90471;-36
2022/04/24 09:11:34;;;;;;;5.22;4.45;;;15.20;71.90;;;;;;4919811;28;91238;-35
2022/04/24 09:16:51;;;;;;;6.68;4.75;;;15.10;71.60;;;;;;4919448;28;90420;-36
2022/04/24 09:19:25;;;;;;;4.88;4.20;;;15.10;71.30;;;;;;4920815;28;90651;-34
2022/04/24 09:21:52;;;;;;;7.18;4.05;;;15.10;77.30;;;;;;4920188;28;89763;-35
2022/04/24 09:24:18;;;;;;;4.37;3.97;;;15.30;70.20;;;;;;4922130;28;90209;-34
2022/04/24 09:26:55;;;;;;;4.32;3.90;;;15.50;69.10;;;;;;4920253;28;90222;-35
2022/04/24 09:29:23;;;;;;;5.90;3.83;;;15.60;73.50;;;;;;4920448;28;89781;-33
2022/04/24 09:31:51;;;;;;;4.20;3.80;;;15.60;70.00;;;;;;4919618;28;90129;-35
2022/04/24 09:34:20;;;;;;;4.65;3.45;;;15.40;65.40;;;;;;4919669;28;90307;-39
2022/04/24 09:36:57;;;;;;;7.80;4.35;;;15.50;65.20;;;;;;4919961;28;89290;-36
2022/04/24 09:39:27;;;;;;;5.43;4.22;;;15.80;66.90;;;;;;4920865;28;89401;-37
2022/04/24 09:42:04;;;;;;;5.82;4.38;;;15.70;63.70;;;;;;4920035;28;89653;-37
2022/04/24 09:44:44;;;;;;;4.40;4.00;;;15.80;64.60;;;;;;4919418;28;89550;-36
2022/04/24 09:47:11;;;;;;;5.60;4.97;;;15.90;61.70;;;;;;4919262;28;89307;-33
2022/04/24 09:49:42;;;;;;;4.18;3.78;;;15.60;61.40;;;;;;4918607;28;89304;-35
2022/04/24 09:52:13;;;;;;;3.92;3.63;;;15.80;63.00;;;;;;4920479;28;90197;-36
2022/04/24 09:54:41;;;;;;;7.45;3.88;;;15.80;62.30;;;;;;4920667;28;89414;-35
2022/04/24 09:57:09;;;;;;;5.43;4.93;;;15.80;62.30;;;;;;4920226;28;90965;-36
2022/04/24 09:59:37;;;;;;;7.03;3.83;;;16.20;65.90;;;;;;4919528;28;90794;-37
2022/04/24 10:02:04;;;;;;;6.07;4.30;;;16.10;61.20;;;;;;4920156;28;90404;-38
2022/04/24 10:04:32;;;;;;;4.25;3.42;;;16.00;62.50;;;;;;4920662;28;89184;-37
2022/04/24 10:06:59;;;;;;;4.90;3.47;;;16.10;62.50;;;;;;4919857;28;91331;-34
2022/04/24 10:09:26;;;;;;;5.50;4.35;;;16.20;60.30;;;;;;4919581;28;90361;-35
2022/04/24 10:11:52;;;;;;;4.82;4.43;;;16.20;60.70;;;;;;4919146;28;89839;-37
2022/04/24 10:14:19;;;;;;;6.15;4.45;;;16.30;62.20;;;;;;4920379;28;89225;-38
2022/04/24 10:17:13;;;;;;;6.07;4.35;;;16.70;62.40;;;;;;4901943;28;90426;-36
2022/04/24 10:20:02;;;;;;;7.72;4.78;;;16.30;60.60;;;;;;4908626;28;89765;-36
2022/04/24 10:22:41;;;;;;;6.55;3.95;;;15.90;62.10;;;;;;4919323;28;89665;-38
2022/04/24 10:25:07;;;;;;;9.48;3.90;;;16.30;60.80;;;;;;4919408;28;89315;-34
2022/04/24 10:27:44;;;;;;;3.97;3.58;;;16.10;60.90;;;;;;4920239;28;90138;-35
2022/04/24 10:30:22;;;;;;;4.18;3.78;;;16.30;58.80;;;;;;4901275;28;91299;-34
2022/04/24 10:32:48;;;;;;;4.47;4.00;;;16.30;60.40;;;;;;4918526;28;89946;-38
2022/04/24 10:35:19;;;;;;;3.47;3.17;;;16.30;57.20;;;;;;4919816;28;89520;-38
2022/04/24 10:37:47;;;;;;;6.40;3.13;;;16.40;57.90;;;;;;4919648;28;91290;-34
2022/04/24 10:40:16;;;;;;;4.15;3.25;;;16.50;57.70;;;;;;4901919;28;89828;-39
2022/04/24 10:42:43;;;;;;;3.78;3.30;;;16.20;56.70;;;;;;4919663;28;88705;-36
2022/04/24 10:45:14;;;;;;;5.60;3.65;;;16.20;57.40;;;;;;4919945;28;89495;-34
2022/04/24 10:47:52;;;;;;;3.83;3.50;;;16.40;58.10;;;;;;4919094;28;90110;-36
2022/04/24 10:50:18;;;;;;;;;;;16.60;59.80;;;;;;4920117;28;90570;-35
2022/04/24 10:52:47;;;;;;;5.50;3.58;;;16.30;59.30;;;;;;4921105;28;90047;-36
2022/04/24 10:55:13;;;;;;;;;;;16.40;60.70;;;;;;4920599;28;89000;-34
2022/04/24 10:57:44;;;;;;;5.82;4.47;;;16.10;57.30;;;;;;4920961;28;89352;-39
2022/04/24 11:00:21;;;;;;;4.35;3.92;;;15.70;59.80;;;;;;4918393;28;89952;-35
2022/04/24 11:02:47;;;;;;;3.53;3.33;;;15.80;59.60;;;;;;4919330;28;89476;-36
2022/04/24 11:05:22;;;;;;;4.68;4.00;;;16.30;59.40;;;;;;4919566;28;88682;-36
2022/04/24 11:08:01;;;;;;;4.47;4.07;;;16.70;58.60;;;;;;4919004;28;90626;-37
2022/04/24 11:10:27;;;;;;;3.58;3.10;;;16.70;57.70;;;;;;4918754;28;89545;-34
2022/04/24 11:12:54;;;;;;;4.47;4.07;;;16.50;57.60;;;;;;4919477;28;89578;-35
2022/04/24 11:15:21;;;;;;;4.45;4.00;;;16.30;58.90;;;;;;4918933;28;89347;-37
2022/04/24 11:17:46;;;;;;;7.75;4.88;;;16.30;58.60;;;;;;4918543;28;90447;-35
2022/04/24 11:20:15;;;;;;;4.95;4.03;;;16.50;59.30;;;;;;4918432;28;89700;-35
2022/04/24 11:22:48;;;;;;;10.25;4.90;;;16.60;58.70;;;;;;4919021;28;89851;-34
2022/04/24 11:25:19;;;;;;;6.28;4.82;;;16.00;59.80;;;;;;4920026;28;89446;-39
2022/04/24 11:27:53;;;;;;;7.57;4.18;;;16.30;62.10;;;;;;4918822;28;90307;-35
2022/04/24 11:30:32;;;;;;;4.68;3.67;;;15.80;60.90;;;;;;4918561;28;88521;-35
2022/04/24 11:33:04;;;;;;;7.15;4.20;;;16.20;66.50;;;;;;4918129;28;89846;-35
2022/04/24 11:35:31;;;;;;;6.20;4.35;;;16.40;62.40;;;;;;4919185;28;89037;-35
2022/04/24 11:37:57;;;;;;;5.30;4.20;;;16.70;59.70;;;;;;4918672;28;90454;-35
2022/04/24 11:40:23;;;;;;;5.18;4.05;;;16.00;58.80;;;;;;4917422;28;90708;-37
2022/04/24 11:42:49;;;;;;;3.97;3.53;;;15.90;61.20;;;;;;4918152;28;90967;-38
2022/04/24 11:50:51;;;;;;;6.35;3.33;;;16.60;57.00;;;;;;4918891;28;89907;-35
2022/04/24 11:53:22;;;;;;;8.80;5.35;;;16.50;57.50;;;;;;4918632;28;89858;-39
2022/04/24 11:56:02;;;;;;;5.00;4.22;;;16.10;58.00;;;;;;4918060;28;88195;-38
2022/04/24 11:58:36;;;;;;;4.75;4.25;;;15.80;60.10;;;;;;4917997;28;90220;-37
2022/04/24 12:01:04;;;;;;;5.43;4.30;;;15.80;62.40;;;;;;4900763;28;89573;-34
2022/04/24 12:03:30;;;;;;;4.70;4.15;;;15.70;60.30;;;;;;4918587;28;89419;-36
2022/04/24 12:06:07;;;;;;;5.28;4.20;;;15.40;61.20;;;;;;4917477;28;89344;-37
2022/04/24 12:08:50;;;;;;;4.78;3.78;;;15.00;62.50;;;;;;4917498;28;90331;-36
2022/04/24 12:11:29;;;;;;;9.57;3.78;;;15.20;64.10;;;;;;4918951;28;89375;-35
2022/04/24 12:14:10;;;;;;;3.78;3.45;;;15.80;66.20;;;;;;4923446;28;89441;-38
2022/04/24 12:16:40;;;;;;;4.10;3.63;;;15.20;60.90;;;;;;4924582;28;89549;-36
2022/04/24 12:19:09;;;;;;;4.97;3.65;;;15.00;66.60;;;;;;4924010;28;92638;-37
2022/04/24 12:21:46;;;;;;;4.10;3.00;;;15.70;64.60;;;;;;4923663;28;91057;-40
2022/04/24 12:24:11;;;;;;;6.10;3.13;;;16.10;61.40;;;;;;4924022;28;90177;-35
2022/04/24 12:26:53;;;;;;;7.15;3.15;;;16.40;58.10;;;;;;4924753;28;88718;-35
2022/04/24 12:29:19;;;;;;;4.15;3.33;;;16.40;56.30;;;;;;4924070;28;90364;-38
2022/04/24 12:31:46;;;;;;;3.92;3.63;;;15.70;58.60;;;;;;4923026;28;89912;-37
2022/04/24 12:34:12;;;;;;;4.22;3.60;;;15.40;61.30;;;;;;4985988;22;91459;-38
2022/04/24 12:36:49;;;;;;;3.38;3.10;;;15.70;58.20;;;;;;4962860;28;89337;-39
2022/04/24 12:39:22;;;;;;;6.05;3.53;;;15.90;56.40;;;;;;4963784;28;90224;-36
2022/04/24 12:41:47;;;;;;;7.15;4.03;;;16.10;56.30;;;;;;4963098;28;89553;-34
2022/04/24 12:44:13;;;;;;;4.47;3.63;;;16.20;57.70;;;;;;4963103;28;89593;-36
2022/04/24 12:46:38;;;;;;;4.47;3.50;;;16.10;56.60;;;;;;4962764;28;88769;-39
2022/04/24 12:49:04;;;;;;;9.90;4.85;;;15.80;56.80;;;;;;4963599;28;90083;-36
2022/04/24 12:51:30;;;;;;;3.78;3.30;;;15.90;59.70;;;;;;4962705;28;90822;-36
2022/04/24 12:53:59;;;;;;;3.35;3.05;;;16.40;59.60;;;;;;4963120;28;88982;-36